IGO247 VABB-VECC
Flight info
| Callsign | IGO247 |
|---|---|
| Flight time | N/A |
| Altitude | 37000 |
| Route | ANOLI2A NONEN Q19 KAMLO W108 NNP G450 JJS JJS2A |
| Aircraft | A20N/M-SDE2E3FGHIRWXY/LB1 |
Departure
| Time | N/A |
|---|---|
| Airport | Chhatrapati Shivaji Maharaj International Airport (VABB) |
Arrival
| Time | 2026-05-06 22:39 |
|---|---|
| Airport | Netaji Subhash Chandra Bose International Airport (VECC) |
| Time | Latitude | Longitude | Altitude | Speed | Heading |
|---|---|---|---|---|---|
| 2026-05-06 21:27 | 21.04217 | 78.74208 | 33823 ft | 517 kts | 81° |
| 2026-05-06 21:28 | 21.05189 | 78.81833 | 33828 ft | 517 kts | 81° |
| 2026-05-06 21:28 | 21.06160 | 78.89469 | 33829 ft | 518 kts | 81° |
| 2026-05-06 21:29 | 21.07128 | 78.97109 | 33830 ft | 518 kts | 82° |
| 2026-05-06 21:29 | 21.08122 | 79.04759 | 33827 ft | 518 kts | 78° |
| 2026-05-06 21:30 | 21.10025 | 79.12179 | 33829 ft | 517 kts | 71° |
| 2026-05-06 21:30 | 21.12071 | 79.19510 | 33828 ft | 517 kts | 72° |
| 2026-05-06 21:31 | 21.14122 | 79.26901 | 33827 ft | 518 kts | 72° |
| 2026-05-06 21:31 | 21.16175 | 79.34310 | 33825 ft | 518 kts | 72° |
| 2026-05-06 21:32 | 21.18224 | 79.41717 | 33819 ft | 518 kts | 72° |
| 2026-05-06 21:32 | 21.21284 | 79.52806 | 33823 ft | 519 kts | 72° |
| 2026-05-06 21:33 | 21.23328 | 79.60231 | 33822 ft | 519 kts | 72° |
| 2026-05-06 21:33 | 21.25373 | 79.67672 | 33822 ft | 520 kts | 72° |
| 2026-05-06 21:34 | 21.27416 | 79.75122 | 33822 ft | 520 kts | 72° |
| 2026-05-06 21:34 | 21.29454 | 79.82567 | 33819 ft | 520 kts | 72° |
| 2026-05-06 21:35 | 21.31478 | 79.89971 | 33822 ft | 521 kts | 72° |
| 2026-05-06 21:35 | 21.33515 | 79.97439 | 33822 ft | 521 kts | 72° |
| 2026-05-06 21:36 | 21.35549 | 80.04912 | 33820 ft | 521 kts | 72° |
| 2026-05-06 21:36 | 21.37579 | 80.12382 | 33818 ft | 521 kts | 72° |
| 2026-05-06 21:37 | 21.39608 | 80.19866 | 33818 ft | 522 kts | 72° |
| 2026-05-06 21:37 | 21.41623 | 80.27309 | 33822 ft | 522 kts | 72° |
| 2026-05-06 21:38 | 21.43647 | 80.34801 | 33829 ft | 522 kts | 72° |
| 2026-05-06 21:38 | 21.45671 | 80.42306 | 33826 ft | 523 kts | 72° |
| 2026-05-06 21:39 | 21.47692 | 80.49816 | 33829 ft | 523 kts | 72° |
| 2026-05-06 21:39 | 21.49695 | 80.57274 | 33831 ft | 523 kts | 72° |
| 2026-05-06 21:40 | 21.51716 | 80.64800 | 33833 ft | 524 kts | 72° |
| 2026-05-06 21:40 | 21.53733 | 80.72322 | 33835 ft | 525 kts | 72° |
| 2026-05-06 21:41 | 21.55751 | 80.79862 | 33838 ft | 524 kts | 72° |
| 2026-05-06 21:41 | 21.57760 | 80.87383 | 33835 ft | 526 kts | 72° |
| 2026-05-06 21:42 | 21.59759 | 80.94882 | 33832 ft | 526 kts | 72° |
| 2026-05-06 21:42 | 21.61780 | 81.02474 | 33832 ft | 526 kts | 72° |
| 2026-05-06 21:43 | 21.63788 | 81.10038 | 33829 ft | 527 kts | 72° |
| 2026-05-06 21:43 | 21.65797 | 81.17616 | 33824 ft | 527 kts | 73° |
| 2026-05-06 21:44 | 21.67805 | 81.25211 | 33821 ft | 527 kts | 73° |
| 2026-05-06 21:44 | 21.69803 | 81.32758 | 33818 ft | 528 kts | 72° |
| 2026-05-06 21:45 | 21.71896 | 81.40337 | 33813 ft | 528 kts | 72° |
| 2026-05-06 21:45 | 21.73998 | 81.47920 | 33811 ft | 528 kts | 72° |
| 2026-05-06 21:46 | 21.76071 | 81.55454 | 33806 ft | 529 kts | 72° |
| 2026-05-06 21:46 | 21.78156 | 81.63059 | 33805 ft | 529 kts | 72° |
| 2026-05-06 21:47 | 21.79801 | 81.69399 | 33807 ft | 529 kts | 74° |
| 2026-05-06 21:47 | 21.81641 | 81.77083 | 33804 ft | 529 kts | 74° |
| 2026-05-06 21:48 | 21.83494 | 81.84758 | 33802 ft | 529 kts | 74° |
| 2026-05-06 21:48 | 21.85359 | 81.92425 | 33806 ft | 529 kts | 74° |
| 2026-05-06 21:49 | 21.87225 | 82.00097 | 33806 ft | 530 kts | 74° |
| 2026-05-06 21:49 | 21.89060 | 82.07723 | 33801 ft | 529 kts | 74° |
| 2026-05-06 21:50 | 21.90899 | 82.15409 | 33802 ft | 529 kts | 74° |
| 2026-05-06 21:50 | 21.92734 | 82.23087 | 33810 ft | 529 kts | 74° |
| 2026-05-06 21:51 | 21.94568 | 82.30776 | 33807 ft | 529 kts | 75° |
| 2026-05-06 21:51 | 21.96385 | 82.38412 | 33802 ft | 529 kts | 75° |
| 2026-05-06 21:52 | 21.98210 | 82.46093 | 33810 ft | 529 kts | 75° |
| 2026-05-06 21:52 | 22.00031 | 82.53776 | 33816 ft | 529 kts | 75° |
| 2026-05-06 21:53 | 22.01847 | 82.61459 | 33817 ft | 529 kts | 75° |
| 2026-05-06 21:53 | 22.03662 | 82.69151 | 33812 ft | 530 kts | 75° |
| 2026-05-06 21:54 | 22.05475 | 82.76853 | 33815 ft | 529 kts | 75° |
| 2026-05-06 21:54 | 22.07284 | 82.84554 | 33816 ft | 530 kts | 75° |
| 2026-05-06 21:55 | 22.09079 | 82.92212 | 33818 ft | 530 kts | 75° |
| 2026-05-06 21:55 | 22.10883 | 82.99926 | 33822 ft | 531 kts | 75° |
| 2026-05-06 21:56 | 22.12685 | 83.07642 | 33817 ft | 530 kts | 75° |
| 2026-05-06 21:56 | 22.14488 | 83.15383 | 33827 ft | 531 kts | 75° |
| 2026-05-06 21:57 | 22.16285 | 83.23122 | 33831 ft | 531 kts | 75° |
| 2026-05-06 21:57 | 22.18079 | 83.30865 | 33839 ft | 531 kts | 75° |
| 2026-05-06 21:58 | 22.19843 | 83.38520 | 33837 ft | 531 kts | 75° |
| 2026-05-06 21:58 | 22.21613 | 83.46267 | 33849 ft | 531 kts | 75° |
| 2026-05-06 21:59 | 22.23381 | 83.54011 | 33853 ft | 531 kts | 75° |
| 2026-05-06 21:59 | 22.25148 | 83.61767 | 33854 ft | 531 kts | 75° |
| 2026-05-06 22:00 | 22.26899 | 83.69470 | 33858 ft | 532 kts | 75° |
| 2026-05-06 22:00 | 22.28661 | 83.77237 | 33864 ft | 531 kts | 75° |
| 2026-05-06 22:01 | 22.30419 | 83.85001 | 33863 ft | 531 kts | 75° |
| 2026-05-06 22:01 | 22.32168 | 83.92748 | 33865 ft | 531 kts | 76° |
| 2026-05-06 22:02 | 22.33955 | 84.00506 | 33866 ft | 532 kts | 75° |
| 2026-05-06 22:02 | 22.35747 | 84.08207 | 33871 ft | 532 kts | 75° |
| 2026-05-06 22:03 | 22.37543 | 84.15964 | 33877 ft | 531 kts | 75° |
| 2026-05-06 22:03 | 22.39328 | 84.23710 | 33876 ft | 531 kts | 75° |
| 2026-05-06 22:04 | 22.41108 | 84.31455 | 33874 ft | 531 kts | 75° |
| 2026-05-06 22:04 | 22.42886 | 84.39209 | 33882 ft | 531 kts | 75° |
| 2026-05-06 22:05 | 22.44649 | 84.46912 | 33884 ft | 531 kts | 75° |
| 2026-05-06 22:05 | 22.46418 | 84.54659 | 33882 ft | 530 kts | 76° |
| 2026-05-06 22:06 | 22.48182 | 84.62404 | 33890 ft | 530 kts | 76° |
| 2026-05-06 22:06 | 22.49942 | 84.70149 | 33891 ft | 530 kts | 76° |
| 2026-05-06 22:07 | 22.51700 | 84.77905 | 33898 ft | 530 kts | 76° |
| 2026-05-06 22:07 | 22.53449 | 84.85652 | 33896 ft | 530 kts | 76° |
| 2026-05-06 22:08 | 22.55123 | 84.93422 | 33901 ft | 529 kts | 77° |
| 2026-05-06 22:08 | 22.56776 | 85.01150 | 33906 ft | 530 kts | 77° |
| 2026-05-06 22:09 | 22.58444 | 85.08925 | 33908 ft | 530 kts | 77° |
| 2026-05-06 22:09 | 22.60111 | 85.16698 | 33910 ft | 530 kts | 77° |
| 2026-05-06 22:10 | 22.61775 | 85.24480 | 33914 ft | 529 kts | 77° |
| 2026-05-06 22:10 | 22.63422 | 85.32200 | 33914 ft | 529 kts | 77° |
| 2026-05-06 22:11 | 22.65074 | 85.39963 | 33919 ft | 529 kts | 77° |
| 2026-05-06 22:11 | 22.66723 | 85.47732 | 33922 ft | 529 kts | 77° |
| 2026-05-06 22:12 | 22.68367 | 85.55497 | 33922 ft | 529 kts | 77° |
| 2026-05-06 22:12 | 22.70008 | 85.63263 | 33918 ft | 529 kts | 77° |
| 2026-05-06 22:13 | 22.71635 | 85.70988 | 33915 ft | 529 kts | 77° |
| 2026-05-06 22:13 | 22.73267 | 85.78757 | 33912 ft | 529 kts | 77° |
| 2026-05-06 22:14 | 22.74893 | 85.86514 | 33907 ft | 528 kts | 77° |
| 2026-05-06 22:14 | 22.76518 | 85.94285 | 33904 ft | 528 kts | 77° |
| 2026-05-06 22:15 | 22.78139 | 86.02057 | 33896 ft | 528 kts | 77° |
| 2026-05-06 22:15 | 22.79754 | 86.09826 | 33897 ft | 528 kts | 77° |
| 2026-05-06 22:16 | 22.81136 | 86.20313 | 33895 ft | 525 kts | 93° |
| 2026-05-06 22:16 | 22.80312 | 86.36117 | 33884 ft | 523 kts | 96° |
| 2026-05-06 22:17 | 22.79457 | 86.51850 | 33877 ft | 522 kts | 96° |
| 2026-05-06 22:17 | 22.78590 | 86.67446 | 33873 ft | 522 kts | 96° |
| 2026-05-06 22:18 | 22.77702 | 86.83132 | 33869 ft | 520 kts | 96° |
| 2026-05-06 22:18 | 22.76943 | 86.96325 | 33858 ft | 520 kts | 96° |
| 2026-05-06 22:19 | 22.76488 | 87.04154 | 33761 ft | 517 kts | 96° |
| 2026-05-06 22:19 | 22.76263 | 87.08024 | 33288 ft | 516 kts | 96° |
| 2026-05-06 22:19 | 22.76034 | 87.11916 | 32500 ft | 518 kts | 96° |
| 2026-05-06 22:20 | 22.75802 | 87.15835 | 31587 ft | 523 kts | 96° |
| 2026-05-06 22:20 | 22.75567 | 87.19788 | 30624 ft | 528 kts | 97° |
| 2026-05-06 22:20 | 22.75329 | 87.23772 | 29702 ft | 532 kts | 97° |
| 2026-05-06 22:20 | 22.75093 | 87.27724 | 28808 ft | 532 kts | 97° |
| 2026-05-06 22:21 | 22.74850 | 87.31769 | 27922 ft | 530 kts | 96° |
| 2026-05-06 22:21 | 22.74613 | 87.35697 | 27045 ft | 529 kts | 96° |
| 2026-05-06 22:21 | 22.74372 | 87.39673 | 26137 ft | 528 kts | 96° |
| 2026-05-06 22:21 | 22.74035 | 87.45210 | 24868 ft | 527 kts | 96° |
| 2026-05-06 22:22 | 22.73552 | 87.53108 | 23172 ft | 521 kts | 96° |
| 2026-05-06 22:22 | 22.73078 | 87.60825 | 21653 ft | 506 kts | 96° |
| 2026-05-06 22:22 | 22.72613 | 87.68316 | 20186 ft | 492 kts | 96° |
| 2026-05-06 22:22 | 22.72153 | 87.75642 | 18783 ft | 479 kts | 96° |
| 2026-05-06 22:23 | 22.71703 | 87.82740 | 17321 ft | 467 kts | 96° |
| 2026-05-06 22:23 | 22.71263 | 87.89653 | 15832 ft | 455 kts | 96° |
| 2026-05-06 22:23 | 22.70828 | 87.96411 | 14409 ft | 443 kts | 95° |
| 2026-05-06 22:23 | 22.70404 | 88.02982 | 12961 ft | 432 kts | 95° |
| 2026-05-06 22:24 | 22.69986 | 88.09394 | 11499 ft | 422 kts | 95° |
| 2026-05-06 22:24 | 22.69575 | 88.15662 | 10096 ft | 412 kts | 94° |
| 2026-05-06 22:24 | 22.68525 | 88.21592 | 8297 ft | 400 kts | 116° |
| 2026-05-06 22:24 | 22.64817 | 88.25831 | 6468 ft | 386 kts | 153° |
| 2026-05-06 22:25 | 22.59716 | 88.26890 | 5027 ft | 367 kts | 179° |
| 2026-05-06 22:25 | 22.55747 | 88.27097 | 4931 ft | 373 kts | 181° |
| 2026-05-06 22:25 | 22.53208 | 88.26823 | 4932 ft | 372 kts | 197° |
| 2026-05-06 22:25 | 22.50872 | 88.25661 | 4928 ft | 369 kts | 216° |
| 2026-05-06 22:26 | 22.49066 | 88.23722 | 4930 ft | 367 kts | 236° |
| 2026-05-06 22:26 | 22.48000 | 88.21245 | 4931 ft | 366 kts | 256° |
| 2026-05-06 22:26 | 22.47792 | 88.18507 | 4932 ft | 366 kts | 276° |
| 2026-05-06 22:26 | 22.48478 | 88.15871 | 4904 ft | 365 kts | 295° |
| 2026-05-06 22:27 | 22.49936 | 88.13645 | 4600 ft | 365 kts | 315° |
| 2026-05-06 22:27 | 22.52011 | 88.12086 | 4020 ft | 365 kts | 334° |
| 2026-05-06 22:27 | 22.54462 | 88.11447 | 3614 ft | 367 kts | 357° |
| 2026-05-06 22:27 | 22.57014 | 88.11747 | 3516 ft | 372 kts | 11° |
| 2026-05-06 22:28 | 22.59516 | 88.12452 | 3505 ft | 371 kts | 14° |
| 2026-05-06 22:28 | 22.62015 | 88.13197 | 3507 ft | 372 kts | 14° |
| 2026-05-06 22:28 | 22.64512 | 88.13945 | 3499 ft | 373 kts | 15° |
| 2026-05-06 22:28 | 22.67008 | 88.14692 | 3499 ft | 372 kts | 14° |
| 2026-05-06 22:29 | 22.69492 | 88.15436 | 3332 ft | 369 kts | 14° |
| 2026-05-06 22:29 | 22.71930 | 88.16165 | 2953 ft | 365 kts | 14° |
| 2026-05-06 22:29 | 22.74318 | 88.16880 | 2894 ft | 346 kts | 14° |
| 2026-05-06 22:29 | 22.76580 | 88.17561 | 2986 ft | 328 kts | 14° |
| 2026-05-06 22:30 | 22.78725 | 88.18171 | 3000 ft | 311 kts | 7° |
| 2026-05-06 22:30 | 22.80898 | 88.18330 | 2999 ft | 314 kts | 7° |
| 2026-05-06 22:30 | 22.82997 | 88.18665 | 3006 ft | 296 kts | 0° |
| 2026-05-06 22:30 | 22.85060 | 88.18649 | 3004 ft | 301 kts | 1° |
| 2026-05-06 22:31 | 22.87146 | 88.18878 | 3004 ft | 300 kts | 10° |
| 2026-05-06 22:31 | 22.89029 | 88.19731 | 3002 ft | 289 kts | 36° |
| 2026-05-06 22:31 | 22.90312 | 88.21304 | 3002 ft | 272 kts | 63° |
| 2026-05-06 22:31 | 22.90750 | 88.23208 | 3008 ft | 253 kts | 93° |
| 2026-05-06 22:32 | 22.90618 | 88.25055 | 3001 ft | 238 kts | 97° |
| 2026-05-06 22:32 | 22.90406 | 88.26788 | 3008 ft | 230 kts | 101° |
| 2026-05-06 22:32 | 22.90240 | 88.27935 | 3003 ft | 234 kts | 101° |
| 2026-05-06 22:32 | 22.89906 | 88.30227 | 2883 ft | 230 kts | 101° |
| 2026-05-06 22:33 | 22.89661 | 88.31943 | 2646 ft | 229 kts | 101° |
| 2026-05-06 22:33 | 22.89421 | 88.33643 | 2443 ft | 226 kts | 101° |
| 2026-05-06 22:33 | 22.89265 | 88.34764 | 2412 ft | 229 kts | 101° |
| 2026-05-06 22:33 | 22.89026 | 88.36478 | 2400 ft | 229 kts | 101° |
| 2026-05-06 22:34 | 22.88773 | 88.38184 | 2409 ft | 228 kts | 104° |
| 2026-05-06 22:34 | 22.88353 | 88.39790 | 2388 ft | 214 kts | 120° |
| 2026-05-06 22:34 | 22.87388 | 88.40936 | 2398 ft | 208 kts | 154° |
| 2026-05-06 22:34 | 22.86104 | 88.41638 | 2763 ft | 212 kts | 154° |
| 2026-05-06 22:35 | 22.84759 | 88.42258 | 2698 ft | 207 kts | 173° |
| 2026-05-06 22:35 | 22.83345 | 88.42426 | 2478 ft | 205 kts | 175° |
| 2026-05-06 22:35 | 22.81943 | 88.42647 | 2221 ft | 201 kts | 171° |
| 2026-05-06 22:35 | 22.80647 | 88.43188 | 1841 ft | 199 kts | 156° |
| 2026-05-06 22:36 | 22.79383 | 88.43885 | 1715 ft | 205 kts | 155° |
| 2026-05-06 22:36 | 22.78148 | 88.44574 | 1692 ft | 190 kts | 155° |
| 2026-05-06 22:36 | 22.77063 | 88.45185 | 1699 ft | 163 kts | 159° |
| 2026-05-06 22:36 | 22.76059 | 88.45408 | 1695 ft | 141 kts | 178° |
| 2026-05-06 22:37 | 22.75061 | 88.45498 | 1707 ft | 142 kts | 179° |
| 2026-05-06 22:37 | 22.74081 | 88.45583 | 1697 ft | 141 kts | 180° |
| 2026-05-06 22:37 | 22.73112 | 88.45602 | 1696 ft | 140 kts | 184° |
| 2026-05-06 22:37 | 22.72132 | 88.45542 | 1605 ft | 141 kts | 187° |
| 2026-05-06 22:38 | 22.71164 | 88.45445 | 1385 ft | 139 kts | 188° |
| 2026-05-06 22:38 | 22.70192 | 88.45334 | 1050 ft | 141 kts | 188° |
| 2026-05-06 22:38 | 22.69209 | 88.45219 | 666 ft | 144 kts | 187° |
| 2026-05-06 22:38 | 22.68213 | 88.45102 | 333 ft | 144 kts | 186° |
| 2026-05-06 22:39 | 22.67218 | 88.44985 | 117 ft | 144 kts | 186° |
| 2026-05-06 22:39 | 22.66231 | 88.44868 | 26 ft | 135 kts | 186° |
| 2026-05-06 22:39 | 22.65690 | 88.44805 | 30 ft | 38 kts | 188° |
| 2026-05-06 22:39 | 22.65596 | 88.44790 | 29 ft | 23 kts | 184° |
| 2026-05-06 22:40 | 22.65385 | 88.44766 | 27 ft | 31 kts | 187° |
| 2026-05-06 22:40 | 22.65163 | 88.44740 | 27 ft | 33 kts | 186° |
| 2026-05-06 22:40 | 22.64937 | 88.44677 | 26 ft | 35 kts | 221° |
| 2026-05-06 22:40 | 22.64789 | 88.44569 | 25 ft | 0 kts | 214° |
| 2026-05-06 22:41 | 22.64729 | 88.44526 | 27 ft | 0 kts | 215° |